Time;durP1;ratioP1;P1;durP2;ratioP2;P2;SDS_P1;SDS_P2;PMS_P1;PMS_P2;Temp;Humidity;BMP_temperature;BMP_pressure;BME280_temperature;BME280_humidity;BME280_pressure;Samples;Min_cycle;Max_cycle;Signal;HPM_P1;HPM_P2
2022/06/16 00:00:59;;;;;;;0.10;0.10;;;22.60;99.90;;;;;;5036017;28;20490;-83
2022/06/16 00:03:25;;;;;;;1.47;1.00;;;22.60;99.90;;;;;;5032064;28;20032;-82
2022/06/16 00:05:51;;;;;;;0.38;0.38;;;22.60;99.90;;;;;;5034735;28;20039;-82
2022/06/16 00:08:18;;;;;;;0.97;0.43;;;22.50;99.90;;;;;;5034141;28;20037;-81
2022/06/16 00:13:35;;;;;;;;;;;22.40;99.90;;;;;;5036760;28;20093;-82
2022/06/16 00:16:01;;;;;;;0.20;0.20;;;22.30;99.90;;;;;;5035254;28;19912;-82
2022/06/16 00:18:28;;;;;;;0.30;0.30;;;22.30;99.90;;;;;;5031340;28;20113;-80
2022/06/16 00:20:53;;;;;;;0.15;0.15;;;22.20;99.90;;;;;;5033108;28;21741;-81
2022/06/16 00:23:19;;;;;;;0.40;0.40;;;22.20;99.90;;;;;;5033340;28;20043;-81
2022/06/16 00:25:45;;;;;;;0.20;0.20;;;22.10;99.90;;;;;;5034073;28;20477;-81
2022/06/16 00:28:11;;;;;;;0.73;0.40;;;22.10;99.90;;;;;;5034274;28;20036;-81
2022/06/16 00:30:36;;;;;;;0.52;0.38;;;22.10;99.90;;;;;;5016039;28;20033;-81
2022/06/16 00:33:03;;;;;;;3.10;0.70;;;21.90;99.90;;;;;;5033093;28;20048;-81
2022/06/16 00:35:28;;;;;;;0.60;0.60;;;21.80;99.90;;;;;;5034014;28;20043;-81
2022/06/16 00:37:54;;;;;;;0.30;0.30;;;21.80;99.90;;;;;;5033555;28;20033;-80
2022/06/16 00:40:20;;;;;;;0.40;0.23;;;21.80;99.90;;;;;;5034177;28;20041;-81
2022/06/16 00:42:46;;;;;;;0.20;0.20;;;21.80;99.90;;;;;;5012361;28;20057;-81
2022/06/16 00:45:43;;;;;;;4.07;0.73;;;21.80;99.90;;;;;;5032612;28;20036;-81
2022/06/16 00:48:17;;;;;;;2.50;1.05;;;21.80;99.90;;;;;;5033359;28;20028;-80
2022/06/16 00:50:46;;;;;;;0.77;0.77;;;21.60;99.90;;;;;;5034104;28;20041;-81
2022/06/16 00:53:12;;;;;;;0.77;0.75;;;21.60;99.90;;;;;;5035134;28;20063;-83
2022/06/16 00:55:38;;;;;;;2.80;1.87;;;21.60;99.90;;;;;;5036024;28;20579;-82
2022/06/16 00:58:06;;;;;;;0.50;0.47;;;21.60;99.90;;;;;;5037312;28;20025;-82
2022/06/16 01:00:47;;;;;;;2.45;0.50;;;21.60;99.90;;;;;;5036313;28;20049;-81
2022/06/16 01:04:51;;;;;;;0.13;0.13;;;21.50;99.90;;;;;;5037132;28;20025;-81
2022/06/16 01:06:02;;;;;;;0.80;0.60;;;21.60;99.90;;;;;;5035655;28;20048;-82
2022/06/16 01:08:28;;;;;;;0.77;0.77;;;21.50;99.90;;;;;;5036283;28;20107;-80
2022/06/16 01:11:03;;;;;;;0.60;0.60;;;21.40;99.90;;;;;;5032547;28;20033;-80
2022/06/16 01:13:50;;;;;;;0.30;0.30;;;21.40;99.90;;;;;;5038337;28;20090;-80
2022/06/16 01:16:26;;;;;;;0.52;0.40;;;21.40;99.90;;;;;;5035479;28;20037;-80
2022/06/16 01:19:01;;;;;;;0.47;0.45;;;21.30;99.90;;;;;;5037519;28;20508;-80
2022/06/16 01:21:50;;;;;;;1.75;1.15;;;21.30;99.90;;;;;;5036438;28;20087;-79
2022/06/16 01:24:49;;;;;;;0.22;0.22;;;21.30;99.90;;;;;;5037963;28;20511;-80
2022/06/16 01:27:47;;;;;;;2.45;0.98;;;21.40;99.90;;;;;;5039641;28;20035;-80
2022/06/16 01:30:15;;;;;;;1.45;1.27;;;21.30;99.90;;;;;;5035492;28;20483;-79
2022/06/16 01:32:52;;;;;;;1.75;1.17;;;21.20;99.90;;;;;;5016922;28;20116;-80
2022/06/16 01:35:30;;;;;;;2.22;1.02;;;21.10;99.90;;;;;;5032320;28;20028;-81
2022/06/16 01:38:07;;;;;;;1.00;0.40;;;21.00;99.90;;;;;;5032319;28;20116;-81
2022/06/16 01:40:44;;;;;;;0.47;0.47;;;20.90;99.90;;;;;;5032962;28;20029;-81
2022/06/16 01:43:28;;;;;;;0.40;0.40;;;20.80;99.90;;;;;;5034046;28;20662;-80
2022/06/16 01:46:10;;;;;;;0.38;0.30;;;20.70;99.90;;;;;;5036738;28;20578;-81
2022/06/16 01:48:37;;;;;;;0.65;0.57;;;20.70;99.90;;;;;;5041274;28;20032;-81
2022/06/16 01:51:20;;;;;;;0.77;0.77;;;20.60;99.90;;;;;;5035200;28;20692;-82
2022/06/16 01:53:50;;;;;;;0.45;0.45;;;20.70;99.90;;;;;;5034333;28;20112;-81
2022/06/16 01:56:29;;;;;;;0.55;0.55;;;20.80;99.90;;;;;;5031146;28;20029;-82
2022/06/16 01:59:02;;;;;;;0.38;0.38;;;20.70;99.90;;;;;;5033562;28;20052;-82
2022/06/16 02:01:35;;;;;;;0.50;0.50;;;20.70;99.90;;;;;;5031303;28;20134;-82
2022/06/16 02:04:13;;;;;;;1.08;0.65;;;20.60;99.90;;;;;;5037200;28;20029;-82
2022/06/16 02:06:43;;;;;;;0.38;0.30;;;20.50;99.90;;;;;;5035070;28;20047;-82
2022/06/16 02:09:13;;;;;;;0.85;0.57;;;20.50;99.90;;;;;;5034471;28;20036;-82
2022/06/16 02:11:42;;;;;;;1.00;0.82;;;20.40;99.90;;;;;;5037352;28;20071;-81
2022/06/16 02:14:35;;;;;;;0.73;0.73;;;20.40;99.90;;;;;;5038018;28;20039;-81
2022/06/16 02:17:02;;;;;;;0.82;0.63;;;20.30;99.90;;;;;;5037464;28;20583;-83
2022/06/16 02:19:29;;;;;;;0.60;0.60;;;20.40;99.90;;;;;;5036502;28;20041;-82
2022/06/16 02:21:55;;;;;;;0.68;0.35;;;20.30;99.90;;;;;;5035798;28;20038;-82
2022/06/16 02:24:24;;;;;;;0.73;0.45;;;20.20;99.90;;;;;;5036130;28;20112;-82
2022/06/16 02:26:53;;;;;;;0.75;0.75;;;20.10;99.90;;;;;;5036546;28;20049;-83
2022/06/16 02:29:36;;;;;;;0.75;0.75;;;20.10;99.90;;;;;;5030760;28;20059;-83
2022/06/16 02:32:51;;;;;;;7.43;2.17;;;20.10;99.90;;;;;;5018536;28;20043;-82
2022/06/16 02:35:49;;;;;;;0.55;0.55;;;20.10;99.90;;;;;;5006616;28;20037;-82
2022/06/16 02:38:30;;;;;;;4.72;1.00;;;20.10;99.90;;;;;;5023389;28;20086;-82
2022/06/16 02:41:11;;;;;;;0.50;0.50;;;20.00;99.90;;;;;;5032748;28;20063;-82
2022/06/16 02:44:01;;;;;;;0.47;0.47;;;20.00;99.90;;;;;;5034463;28;20107;-84
2022/06/16 02:46:39;;;;;;;0.75;0.70;;;20.00;99.90;;;;;;5020965;28;20120;-85
2022/06/16 02:49:19;;;;;;;1.55;1.00;;;20.00;99.90;;;;;;5034210;28;20049;-80
2022/06/16 02:52:13;;;;;;;1.17;0.90;;;20.00;99.90;;;;;;5029786;28;20060;-80
2022/06/16 02:54:47;;;;;;;0.32;0.32;;;19.90;99.90;;;;;;5030778;28;20056;-81
2022/06/16 02:57:34;;;;;;;2.13;0.50;;;20.00;99.90;;;;;;5031559;28;20039;-80
2022/06/16 03:00:12;;;;;;;2.30;0.77;;;19.90;99.90;;;;;;5035449;28;20068;-79
2022/06/16 03:02:41;;;;;;;0.95;0.93;;;20.00;99.90;;;;;;5017505;28;20044;-80
2022/06/16 03:05:08;;;;;;;0.75;0.70;;;19.90;99.90;;;;;;5037340;28;20040;-80
2022/06/16 03:07:34;;;;;;;;;;;19.90;99.90;;;;;;5034563;28;20118;-80
2022/06/16 03:10:00;;;;;;;;;;;19.90;99.90;;;;;;5034423;28;20023;-80
2022/06/16 03:12:26;;;;;;;;;;;19.90;99.90;;;;;;5039090;28;20447;-79
2022/06/16 03:14:52;;;;;;;2.70;1.40;;;19.90;99.90;;;;;;5034837;28;19998;-80
2022/06/16 03:17:17;;;;;;;0.60;0.60;;;19.70;99.90;;;;;;5035071;28;20455;-78
2022/06/16 03:19:44;;;;;;;0.73;0.70;;;19.70;99.90;;;;;;5034842;28;20036;-78
2022/06/16 03:22:10;;;;;;;0.75;0.75;;;19.70;99.90;;;;;;5035189;28;20036;-79
2022/06/16 03:24:36;;;;;;;0.75;0.73;;;19.60;99.90;;;;;;5035157;28;20037;-82
2022/06/16 03:27:02;;;;;;;0.60;0.60;;;19.60;99.90;;;;;;5031782;28;20508;-81
2022/06/16 03:29:29;;;;;;;0.98;0.88;;;19.60;99.90;;;;;;5030086;28;20032;-81
2022/06/16 03:31:55;;;;;;;1.15;1.00;;;19.60;99.90;;;;;;5031786;28;20091;-80
2022/06/16 03:34:21;;;;;;;0.32;0.32;;;19.60;99.90;;;;;;5017238;28;20403;-81
2022/06/16 03:36:47;;;;;;;;;;;19.60;99.90;;;;;;5016610;28;20047;-80
2022/06/16 03:39:13;;;;;;;1.20;1.08;;;19.50;99.90;;;;;;5035007;28;19944;-81
2022/06/16 03:41:39;;;;;;;0.30;0.30;;;19.50;99.90;;;;;;5017627;28;20153;-80
2022/06/16 03:44:05;;;;;;;0.50;0.40;;;19.60;99.90;;;;;;5033824;28;20029;-82
2022/06/16 03:46:32;;;;;;;0.43;0.43;;;19.60;99.90;;;;;;5030057;28;20029;-81
2022/06/16 03:48:58;;;;;;;;;;;19.50;99.90;;;;;;5032942;28;20946;-81
2022/06/16 03:51:23;;;;;;;0.60;0.60;;;19.50;99.90;;;;;;5034439;28;20439;-80
2022/06/16 03:53:49;;;;;;;0.27;0.27;;;19.50;99.90;;;;;;5034881;28;20033;-80
2022/06/16 03:56:15;;;;;;;0.93;0.90;;;19.40;99.90;;;;;;5017849;28;21611;-80
2022/06/16 03:58:41;;;;;;;0.60;0.55;;;19.40;99.90;;;;;;5035371;28;20020;-80
2022/06/16 04:01:08;;;;;;;0.52;0.50;;;19.40;99.90;;;;;;5034220;28;20056;-80
2022/06/16 04:06:19;;;;;;;0.47;0.43;;;19.20;99.90;;;;;;5034171;28;20457;-82
2022/06/16 04:08:44;;;;;;;1.95;0.93;;;19.20;99.90;;;;;;5034651;28;20021;-82
2022/06/16 04:11:28;;;;;;;1.40;1.00;;;19.30;99.90;;;;;;5032496;28;20109;-84
2022/06/16 04:13:57;;;;;;;0.85;0.85;;;19.20;99.90;;;;;;5014806;28;20134;-82
2022/06/16 04:16:23;;;;;;;0.40;0.40;;;19.30;99.90;;;;;;5016103;28;20058;-80
2022/06/16 04:18:49;;;;;;;0.57;0.50;;;19.20;99.90;;;;;;5033911;28;20040;-83
2022/06/16 04:21:15;;;;;;;0.40;0.40;;;19.30;99.90;;;;;;5035656;28;20037;-81
2022/06/16 04:23:41;;;;;;;3.92;0.52;;;19.30;99.90;;;;;;5038439;28;20460;-81
2022/06/16 04:26:07;;;;;;;0.63;0.63;;;19.30;99.90;;;;;;5040844;28;20090;-84
2022/06/16 04:28:33;;;;;;;1.33;1.08;;;19.20;99.90;;;;;;5041652;28;20104;-83
2022/06/16 04:30:59;;;;;;;0.50;0.50;;;19.20;99.90;;;;;;5040270;28;20120;-84
2022/06/16 04:33:25;;;;;;;3.92;0.63;;;19.30;99.90;;;;;;5039282;28;20021;-83
2022/06/16 04:35:51;;;;;;;0.70;0.70;;;19.40;99.90;;;;;;5044284;28;20061;-84
2022/06/16 04:38:18;;;;;;;0.80;0.80;;;19.50;99.90;;;;;;5044818;28;20043;-85
2022/06/16 04:40:43;;;;;;;1.80;1.20;;;19.60;99.90;;;;;;5044776;28;20116;-86
2022/06/16 04:43:10;;;;;;;0.33;0.33;;;19.70;99.90;;;;;;5043610;28;20156;-86
2022/06/16 04:45:37;;;;;;;2.08;1.35;;;19.90;99.90;;;;;;5027863;28;20136;-81
2022/06/16 04:48:03;;;;;;;0.55;0.55;;;20.00;99.90;;;;;;5042575;28;20060;-80
2022/06/16 04:50:29;;;;;;;0.30;0.30;;;20.20;99.90;;;;;;5047774;28;20076;-86
2022/06/16 04:52:54;;;;;;;1.37;0.97;;;20.30;99.90;;;;;;5039161;28;20068;-85
2022/06/16 04:55:20;;;;;;;1.60;0.93;;;20.40;99.90;;;;;;5043019;28;20396;-80
2022/06/16 04:57:46;;;;;;;1.57;0.47;;;20.40;99.90;;;;;;5043264;28;20098;-80
2022/06/16 05:00:15;;;;;;;0.53;0.40;;;20.30;99.90;;;;;;5028483;28;20453;-86
2022/06/16 05:02:41;;;;;;;0.50;0.38;;;20.40;99.90;;;;;;5045074;28;20017;-82
2022/06/16 05:05:07;;;;;;;0.97;0.90;;;20.40;99.90;;;;;;5044037;28;20036;-83
2022/06/16 05:07:33;;;;;;;1.15;1.08;;;20.60;99.90;;;;;;5044348;28;20033;-83
2022/06/16 05:09:59;;;;;;;0.40;0.27;;;20.60;99.90;;;;;;5042902;28;20047;-81
2022/06/16 05:12:25;;;;;;;0.70;0.50;;;20.80;99.90;;;;;;5043389;28;20099;-87
2022/06/16 05:14:50;;;;;;;0.70;0.70;;;20.90;99.90;;;;;;5042292;28;20044;-83
2022/06/16 05:17:16;;;;;;;1.60;1.50;;;21.10;99.90;;;;;;5026405;28;20492;-80
2022/06/16 05:19:42;;;;;;;0.30;0.30;;;21.30;99.90;;;;;;5046097;28;20036;-92
2022/06/16 05:22:08;;;;;;;0.20;0.20;;;21.80;99.90;;;;;;5030542;28;20300;-90
2022/06/16 05:24:34;;;;;;;0.30;0.30;;;22.20;99.90;;;;;;5029567;28;20032;-90
2022/06/16 05:27:04;;;;;;;1.80;1.65;;;22.40;99.90;;;;;;5029852;28;20540;-91
2022/06/16 05:29:30;;;;;;;0.45;0.45;;;22.60;99.90;;;;;;5043249;28;20071;-91
2022/06/16 05:31:56;;;;;;;;;;;23.00;99.90;;;;;;5044060;28;20041;-90
2022/06/16 05:34:22;;;;;;;0.28;0.28;;;23.30;99.90;;;;;;5023759;28;19920;-90
2022/06/16 05:36:47;;;;;;;0.50;0.50;;;23.50;99.90;;;;;;5040594;28;20029;-90
2022/06/16 05:39:13;;;;;;;0.30;0.30;;;23.80;99.90;;;;;;5020674;28;20040;-88
2022/06/16 05:41:40;;;;;;;0.57;0.57;;;23.80;99.90;;;;;;5029419;28;20177;-90
2022/06/16 05:44:06;;;;;;;0.55;0.55;;;23.50;99.90;;;;;;5027284;28;20061;-90
2022/06/16 05:46:32;;;;;;;0.52;0.52;;;23.90;99.90;;;;;;5028428;28;20032;-89
2022/06/16 05:48:57;;;;;;;0.50;0.50;;;24.30;99.90;;;;;;5035591;28;20053;-91
2022/06/16 05:51:23;;;;;;;0.43;0.30;;;24.50;99.90;;;;;;5041314;28;20033;-91
2022/06/16 05:53:50;;;;;;;9.15;2.17;;;24.80;99.90;;;;;;5042734;28;20032;-90
2022/06/16 05:56:17;;;;;;;0.40;0.32;;;25.10;99.90;;;;;;5029484;28;20033;-89
2022/06/16 05:58:43;;;;;;;0.15;0.15;;;25.20;99.20;;;;;;5030652;28;20028;-91
2022/06/16 06:01:10;;;;;;;;;;;24.60;99.90;;;;;;5031489;28;20206;-91
2022/06/16 06:03:38;;;;;;;0.60;0.60;;;24.30;99.90;;;;;;5019058;28;20188;-88
2022/06/16 06:06:04;;;;;;;0.88;0.75;;;24.60;99.90;;;;;;5045006;28;20044;-89
2022/06/16 06:16:57;;;;;;;0.22;0.20;;;25.10;99.30;;;;;;5044003;28;20175;-90
2022/06/16 06:19:31;;;;;;;;;;;25.70;97.80;;;;;;5047047;28;20074;-93
2022/06/16 06:22:02;;;;;;;0.85;0.60;;;25.90;97.20;;;;;;5043171;28;19921;-89
2022/06/16 06:24:58;;;;;;;2.00;0.82;;;25.90;96.30;;;;;;5045054;28;20029;-90
2022/06/16 06:27:23;;;;;;;;;;;26.10;96.60;;;;;;5045724;28;20552;-90
2022/06/16 06:29:50;;;;;;;0.20;0.20;;;27.00;94.00;;;;;;5044621;28;19913;-87
2022/06/16 06:32:18;;;;;;;0.57;0.57;;;27.50;93.10;;;;;;5045330;28;20182;-88
2022/06/16 06:34:44;;;;;;;5.45;1.35;;;28.10;92.30;;;;;;5046998;28;20110;-91
2022/06/16 06:37:12;;;;;;;1.92;1.13;;;27.90;92.10;;;;;;5041186;28;20481;-87
2022/06/16 06:39:38;;;;;;;0.57;0.40;;;26.70;94.00;;;;;;5023845;28;20044;-86
2022/06/16 06:42:04;;;;;;;0.43;0.40;;;26.60;94.40;;;;;;5042060;28;20037;-86
2022/06/16 06:44:31;;;;;;;0.93;0.88;;;27.00;94.40;;;;;;5044586;28;20040;-86
2022/06/16 06:46:57;;;;;;;1.25;0.80;;;27.40;93.20;;;;;;5043385;28;20028;-86
2022/06/16 06:49:23;;;;;;;0.35;0.25;;;27.10;94.60;;;;;;5036127;28;20420;-86
2022/06/16 06:51:49;;;;;;;0.20;0.20;;;27.10;95.00;;;;;;5025537;28;20416;-87
2022/06/16 06:54:15;;;;;;;0.25;0.25;;;27.60;93.10;;;;;;5040586;28;20057;-86
2022/06/16 06:56:41;;;;;;;2.17;0.75;;;28.00;92.40;;;;;;5043468;28;20097;-87
2022/06/16 06:59:11;;;;;;;0.20;0.20;;;27.90;91.70;;;;;;5024355;28;20037;-86
2022/06/16 07:01:36;;;;;;;0.45;0.45;;;28.20;91.90;;;;;;5040837;28;20065;-87
2022/06/16 07:04:02;;;;;;;2.03;0.93;;;27.80;92.00;;;;;;5040823;28;20508;-86
2022/06/16 07:06:28;;;;;;;0.35;0.35;;;27.10;93.90;;;;;;5015071;28;20048;-86
2022/06/16 07:08:54;;;;;;;1.55;0.63;;;26.50;94.80;;;;;;5041777;28;20021;-86
2022/06/16 07:11:20;;;;;;;0.75;0.57;;;27.80;92.60;;;;;;5026038;28;20099;-86
2022/06/16 07:13:46;;;;;;;3.20;1.05;;;28.90;90.20;;;;;;5024864;28;20025;-87
2022/06/16 07:16:12;;;;;;;0.80;0.47;;;29.00;90.50;;;;;;5041068;28;20409;-87
2022/06/16 07:18:38;;;;;;;0.77;0.77;;;29.50;88.80;;;;;;5022425;28;20029;-86
2022/06/16 07:21:05;;;;;;;0.80;0.50;;;29.90;87.50;;;;;;5041985;28;20047;-87
2022/06/16 07:23:31;;;;;;;0.47;0.45;;;29.70;87.00;;;;;;5044276;28;20048;-86
2022/06/16 07:25:57;;;;;;;1.55;1.45;;;29.90;88.30;;;;;;5040752;28;20483;-85
2022/06/16 07:28:22;;;;;;;;;;;31.00;83.20;;;;;;5041382;28;20040;-86
2022/06/16 07:30:48;;;;;;;1.08;0.88;;;30.10;83.40;;;;;;5019174;28;19924;-86
2022/06/16 07:33:14;;;;;;;;;;;30.00;87.60;;;;;;5037352;28;20021;-86
2022/06/16 07:35:43;;;;;;;0.40;0.32;;;30.50;85.30;;;;;;5043111;28;19908;-86
2022/06/16 07:38:10;;;;;;;0.73;0.70;;;30.60;87.40;;;;;;5041953;28;20029;-86
2022/06/16 07:40:36;;;;;;;2.00;1.20;;;30.30;84.70;;;;;;5040261;28;20214;-87
2022/06/16 07:43:02;;;;;;;;;;;28.90;90.10;;;;;;5023311;28;20033;-86
2022/06/16 07:45:29;;;;;;;4.03;1.15;;;27.70;93.00;;;;;;5042512;28;19913;-86
2022/06/16 07:47:57;;;;;;;0.35;0.35;;;28.00;92.40;;;;;;5023348;28;20030;-86
2022/06/16 07:50:24;;;;;;;0.95;0.68;;;28.40;91.90;;;;;;5043924;28;20106;-85
2022/06/16 07:52:50;;;;;;;0.52;0.50;;;29.00;91.00;;;;;;5039795;28;20036;-85
2022/06/16 07:55:18;;;;;;;2.67;1.20;;;29.20;89.70;;;;;;5039952;28;20107;-86
2022/06/16 07:57:49;;;;;;;0.77;0.40;;;29.60;89.40;;;;;;5040082;28;20020;-86
2022/06/16 08:00:19;;;;;;;0.50;0.50;;;29.60;88.60;;;;;;5040019;28;20038;-86
2022/06/16 08:02:45;;;;;;;0.77;0.60;;;30.40;90.50;;;;;;5042252;28;20033;-86
2022/06/16 08:05:12;;;;;;;0.52;0.52;;;30.20;86.20;;;;;;5041662;28;20037;-86
2022/06/16 08:07:39;;;;;;;1.10;0.57;;;30.20;84.60;;;;;;5039968;28;20095;-87
2022/06/16 08:10:08;;;;;;;1.65;0.70;;;31.00;86.50;;;;;;5040242;28;20029;-87
2022/06/16 08:12:34;;;;;;;0.98;0.93;;;32.40;79.60;;;;;;5024528;28;20559;-87
2022/06/16 08:15:01;;;;;;;0.80;0.68;;;33.00;78.40;;;;;;5036066;28;20853;-88
2022/06/16 08:17:34;;;;;;;0.68;0.60;;;32.10;79.20;;;;;;5043112;28;20037;-87
2022/06/16 08:20:01;;;;;;;1.08;0.80;;;31.50;83.00;;;;;;5036247;28;20067;-87
2022/06/16 08:22:27;;;;;;;0.68;0.68;;;31.10;82.70;;;;;;5040038;28;20082;-87
2022/06/16 08:24:53;;;;;;;2.88;1.45;;;29.70;85.80;;;;;;5040155;28;20040;-87
2022/06/16 08:27:22;;;;;;;0.65;0.60;;;28.90;89.80;;;;;;5040004;28;20563;-87
2022/06/16 08:29:49;;;;;;;2.08;1.05;;;28.60;91.50;;;;;;5023396;28;20060;-86
2022/06/16 08:32:17;;;;;;;0.47;0.47;;;28.10;91.30;;;;;;5041499;28;20029;-87
2022/06/16 08:34:43;;;;;;;3.97;1.15;;;27.80;91.30;;;;;;5039676;28;20512;-87
2022/06/16 08:37:09;;;;;;;3.60;1.33;;;27.50;92.60;;;;;;5040878;28;20059;-87
2022/06/16 08:39:35;;;;;;;0.50;0.25;;;27.80;94.10;;;;;;5039173;28;20032;-87
2022/06/16 08:42:22;;;;;;;0.35;0.35;;;27.60;93.90;;;;;;5039352;28;20111;-86
2022/06/16 08:45:07;;;;;;;0.93;0.68;;;27.60;93.40;;;;;;5040221;28;20025;-86
2022/06/16 08:47:40;;;;;;;0.50;0.50;;;28.00;92.40;;;;;;5039027;28;20540;-87
2022/06/16 08:50:23;;;;;;;0.22;0.22;;;28.20;92.90;;;;;;5042170;28;20052;-83
2022/06/16 08:53:06;;;;;;;1.40;0.40;;;28.40;92.50;;;;;;5040895;28;20037;-83
2022/06/16 08:55:48;;;;;;;0.13;0.13;;;28.80;93.10;;;;;;5039083;28;20036;-82
2022/06/16 08:58:14;;;;;;;2.10;1.25;;;28.90;92.50;;;;;;5039047;28;20525;-83
2022/06/16 09:00:46;;;;;;;0.73;0.30;;;29.50;91.00;;;;;;5038600;28;20037;-83
2022/06/16 09:03:28;;;;;;;1.75;0.55;;;30.10;90.30;;;;;;5039167;28;20787;-84
2022/06/16 09:06:33;;;;;;;0.20;0.20;;;31.80;86.70;;;;;;5040229;28;20087;-83
2022/06/16 09:10:14;;;;;;;0.10;0.10;;;33.70;81.20;;;;;;5034308;28;20032;-83
2022/06/16 09:12:32;;;;;;;1.08;0.95;;;34.20;74.80;;;;;;5034359;28;20040;-83
2022/06/16 09:15:20;;;;;;;0.52;0.52;;;36.10;71.50;;;;;;5039178;28;20399;-83
2022/06/16 09:18:13;;;;;;;0.38;0.38;;;36.90;67.70;;;;;;5036437;28;20036;-83
2022/06/16 09:20:57;;;;;;;0.63;0.63;;;36.00;64.40;;;;;;5042396;28;20037;-84
2022/06/16 09:23:59;;;;;;;0.35;0.35;;;35.90;68.40;;;;;;5045620;28;20033;-83
2022/06/16 09:26:48;;;;;;;0.57;0.57;;;34.60;71.50;;;;;;5046137;28;20396;-83
2022/06/16 09:29:42;;;;;;;0.25;0.25;;;33.60;73.20;;;;;;5044760;28;20032;-84
2022/06/16 09:32:21;;;;;;;0.20;0.20;;;34.30;68.20;;;;;;5046090;28;20508;-83
2022/06/16 09:35:02;;;;;;;0.63;0.55;;;35.70;74.20;;;;;;5027925;28;20025;-83
2022/06/16 09:37:41;;;;;;;0.52;0.52;;;36.40;73.00;;;;;;5042682;28;20025;-84
2022/06/16 09:40:27;;;;;;;5.45;1.17;;;38.40;69.30;;;;;;5042587;28;20075;-84
2022/06/16 09:43:21;;;;;;;0.75;0.75;;;39.20;62.60;;;;;;5033950;28;20056;-84
2022/06/16 09:46:01;;;;;;;0.30;0.30;;;39.40;65.20;;;;;;4986404;28;20030;-83
2022/06/16 09:48:54;;;;;;;0.88;0.47;;;39.40;61.80;;;;;;5001730;28;20030;-84
2022/06/16 09:51:27;;;;;;;1.98;0.80;;;39.40;61.70;;;;;;5000284;28;20042;-86
2022/06/16 09:54:12;;;;;;;0.77;0.65;;;39.00;57.90;;;;;;5001232;28;20608;-86
2022/06/16 09:56:51;;;;;;;1.50;1.05;;;38.10;57.30;;;;;;4998948;28;20046;-86
2022/06/16 10:00:06;;;;;;;0.30;0.30;;;38.90;57.10;;;;;;5001479;28;20429;-86
2022/06/16 10:02:44;;;;;;;0.28;0.28;;;39.30;57.70;;;;;;4996716;28;20062;-86
2022/06/16 10:05:26;;;;;;;0.35;0.20;;;39.80;56.70;;;;;;5003218;28;20035;-85
2022/06/16 10:08:04;;;;;;;0.43;0.35;;;40.00;55.80;;;;;;4986249;28;20108;-86
2022/06/16 10:10:59;;;;;;;0.55;0.45;;;38.70;56.50;;;;;;4999278;28;20119;-86
2022/06/16 10:13:35;;;;;;;5.88;0.65;;;38.00;59.60;;;;;;4979627;28;20947;-87
2022/06/16 10:16:13;;;;;;;0.52;0.52;;;38.10;59.40;;;;;;4999518;28;20045;-86
2022/06/16 10:18:40;;;;;;;0.25;0.13;;;37.90;60.40;;;;;;4988895;28;20029;-85
2022/06/16 10:21:07;;;;;;;0.43;0.43;;;38.10;57.00;;;;;;4999460;28;20095;-86
2022/06/16 10:23:47;;;;;;;0.65;0.47;;;37.90;56.50;;;;;;5037537;28;20106;-85
2022/06/16 10:26:13;;;;;;;0.60;0.60;;;38.10;54.70;;;;;;5043192;28;20094;-86
2022/06/16 10:28:45;;;;;;;2.25;1.05;;;38.50;54.00;;;;;;5040303;28;20032;-86
2022/06/16 10:31:18;;;;;;;1.85;1.08;;;38.50;51.80;;;;;;5026274;28;20064;-86
2022/06/16 10:33:56;;;;;;;0.63;0.63;;;37.80;53.10;;;;;;5031406;28;20539;-87
2022/06/16 10:36:25;;;;;;;1.40;0.45;;;37.60;53.90;;;;;;5041119;28;20045;-85
2022/06/16 10:39:21;;;;;;;0.30;0.30;;;37.80;51.20;;;;;;5043170;28;20025;-85
2022/06/16 10:41:58;;;;;;;0.35;0.35;;;36.40;54.70;;;;;;5041703;28;20556;-86
2022/06/16 10:44:27;;;;;;;0.45;0.40;;;35.40;59.40;;;;;;5044577;28;20082;-86
2022/06/16 10:46:57;;;;;;;6.30;0.45;;;35.20;58.40;;;;;;5025225;28;20128;-86
2022/06/16 10:49:33;;;;;;;2.00;1.08;;;34.50;58.90;;;;;;5040897;28;20049;-86
2022/06/16 10:52:11;;;;;;;2.30;0.68;;;33.90;64.60;;;;;;5041288;28;20040;-85
2022/06/16 10:54:44;;;;;;;1.58;1.05;;;33.80;62.60;;;;;;5025958;28;20094;-86
2022/06/16 10:57:16;;;;;;;0.90;0.82;;;33.10;62.70;;;;;;5040534;28;20970;-85
2022/06/16 10:59:51;;;;;;;0.38;0.38;;;32.60;61.90;;;;;;5024920;28;20033;-86
2022/06/16 11:02:22;;;;;;;0.03;0.03;;;32.60;64.10;;;;;;5043223;28;20390;-86
2022/06/16 11:05:10;;;;;;;9.80;0.65;;;32.50;63.60;;;;;;5041380;28;20059;-85
2022/06/16 11:07:40;;;;;;;1.13;0.50;;;32.50;61.30;;;;;;5040802;28;20048;-87
2022/06/16 11:10:28;;;;;;;0.10;0.10;;;32.20;63.30;;;;;;5040834;28;20111;-85
2022/06/16 11:12:55;;;;;;;0.08;0.08;;;32.00;60.30;;;;;;5032358;28;20046;-86
2022/06/16 11:15:23;;;;;;;0.80;0.45;;;32.10;61.80;;;;;;5043091;28;20049;-86
2022/06/16 11:17:53;;;;;;;0.10;0.10;;;32.10;64.50;;;;;;5042751;28;20091;-86
2022/06/16 11:20:19;;;;;;;0.43;0.43;;;32.20;66.00;;;;;;5043361;28;20090;-86
2022/06/16 11:22:47;;;;;;;1.25;0.77;;;32.40;64.50;;;;;;5040130;28;20028;-86
2022/06/16 11:25:16;;;;;;;1.20;1.10;;;32.50;68.20;;;;;;5039901;28;20419;-87
2022/06/16 11:28:01;;;;;;;5.00;0.20;;;32.20;68.10;;;;;;5030113;28;20032;-87
2022/06/16 11:30:41;;;;;;;1.20;0.68;;;32.20;71.50;;;;;;5040451;28;20097;-86
2022/06/16 11:36:22;;;;;;;2.72;1.20;;;31.60;70.60;;;;;;5036975;28;20121;-87
2022/06/16 11:39:21;;;;;;;0.50;0.47;;;31.70;67.90;;;;;;5041747;28;20044;-87
2022/06/16 11:41:51;;;;;;;0.50;0.15;;;31.50;74.20;;;;;;5040035;28;20055;-86
2022/06/16 11:44:31;;;;;;;0.32;0.32;;;31.70;67.40;;;;;;5042180;28;20035;-86
2022/06/16 11:47:23;;;;;;;0.50;0.50;;;31.80;67.10;;;;;;5042692;28;20078;-87
2022/06/16 11:49:57;;;;;;;0.52;0.52;;;31.60;65.60;;;;;;5040165;28;20055;-86
2022/06/16 11:52:48;;;;;;;1.02;0.75;;;31.60;64.10;;;;;;5039818;28;20044;-86
2022/06/16 11:55:36;;;;;;;0.60;0.57;;;31.40;66.20;;;;;;5041780;28;20029;-86
2022/06/16 11:58:28;;;;;;;0.28;0.28;;;31.40;66.60;;;;;;5039309;28;20025;-87
2022/06/16 12:01:21;;;;;;;0.30;0.30;;;31.40;67.80;;;;;;5030849;28;20105;-87
2022/06/16 12:04:20;;;;;;;0.32;0.32;;;31.60;72.80;;;;;;5029770;28;20060;-86
2022/06/16 12:07:11;;;;;;;2.80;1.52;;;31.70;73.10;;;;;;5023957;28;20060;-86
2022/06/16 12:09:49;;;;;;;0.20;0.20;;;31.70;70.20;;;;;;5040726;28;20037;-86
2022/06/16 12:12:25;;;;;;;0.10;0.10;;;31.60;68.50;;;;;;5039360;28;20030;-86
2022/06/16 12:15:29;;;;;;;0.50;0.30;;;31.30;64.00;;;;;;5040699;28;20083;-87
2022/06/16 12:18:09;;;;;;;0.35;0.30;;;31.20;65.10;;;;;;5039698;28;20029;-87
2022/06/16 12:20:53;;;;;;;0.47;0.40;;;31.20;66.20;;;;;;5041821;28;20063;-87
2022/06/16 12:23:44;;;;;;;0.55;0.30;;;31.30;64.20;;;;;;5041986;28;20069;-86
2022/06/16 12:26:26;;;;;;;0.73;0.15;;;31.50;68.80;;;;;;5042562;28;20036;-87
2022/06/16 12:29:01;;;;;;;1.10;0.73;;;31.50;71.20;;;;;;5039488;28;20044;-86
2022/06/16 12:32:16;;;;;;;0.28;0.28;;;31.40;70.60;;;;;;5039028;28;20104;-87
2022/06/16 12:35:07;;;;;;;0.43;0.40;;;31.20;66.90;;;;;;4993535;28;20084;-87
2022/06/16 12:37:38;;;;;;;0.30;0.30;;;31.20;70.20;;;;;;4980758;28;20402;-86
2022/06/16 12:40:07;;;;;;;0.10;0.10;;;31.10;68.20;;;;;;4997119;28;20117;-86
2022/06/16 12:42:39;;;;;;;1.35;0.75;;;31.10;68.80;;;;;;4997566;28;20026;-86
2022/06/16 12:45:15;;;;;;;0.40;0.40;;;31.10;69.00;;;;;;4999361;28;20577;-86
2022/06/16 12:47:49;;;;;;;0.60;0.57;;;31.10;72.50;;;;;;4999571;28;20076;-86
2022/06/16 12:50:25;;;;;;;1.58;0.47;;;31.10;66.00;;;;;;4999046;28;20045;-87
2022/06/16 12:53:04;;;;;;;2.08;1.00;;;31.10;70.10;;;;;;4982988;28;20081;-87
2022/06/16 12:55:39;;;;;;;0.40;0.40;;;30.80;62.50;;;;;;5003804;28;20041;-86
2022/06/16 12:58:29;;;;;;;0.40;0.37;;;30.90;67.70;;;;;;5001409;28;20049;-86
2022/06/16 13:01:00;;;;;;;0.25;0.22;;;30.80;67.40;;;;;;4992614;28;20116;-86
2022/06/16 13:03:38;;;;;;;0.10;0.10;;;31.00;65.80;;;;;;5000538;28;20040;-86
2022/06/16 13:06:05;;;;;;;0.30;0.30;;;31.00;68.60;;;;;;5000662;28;20846;-87
2022/06/16 13:08:37;;;;;;;0.35;0.35;;;31.00;63.50;;;;;;5003945;28;20034;-85
2022/06/16 13:11:08;;;;;;;0.10;0.10;;;31.10;63.70;;;;;;5014447;28;20037;-86
2022/06/16 13:13:45;;;;;;;0.47;0.47;;;31.20;71.40;;;;;;5030102;28;20594;-86
2022/06/16 13:16:17;;;;;;;1.55;0.35;;;31.20;69.50;;;;;;5036162;28;20120;-86
2022/06/16 13:18:51;;;;;;;0.20;0.03;;;31.10;70.70;;;;;;5028029;28;20120;-86
2022/06/16 13:21:23;;;;;;;5.38;0.90;;;31.10;72.20;;;;;;5042646;28;20055;-85
2022/06/16 13:23:52;;;;;;;0.77;0.30;;;31.10;69.80;;;;;;5044759;28;20021;-85
2022/06/16 13:26:25;;;;;;;0.17;0.15;;;31.00;76.80;;;;;;5042156;28;20052;-86
2022/06/16 13:29:00;;;;;;;0.10;0.10;;;31.10;76.00;;;;;;5041817;28;20492;-86
2022/06/16 13:31:42;;;;;;;0.40;0.30;;;31.10;78.20;;;;;;5042691;28;20037;-85
2022/06/16 13:34:08;;;;;;;0.68;0.38;;;31.00;73.00;;;;;;5043348;28;20028;-85
2022/06/16 13:36:33;;;;;;;1.00;0.65;;;30.90;77.20;;;;;;5043246;28;20393;-85
2022/06/16 13:39:02;;;;;;;0.10;0.10;;;30.90;76.50;;;;;;5043513;28;20033;-85